sensor_id;sensor_type;location;lat;lon;timestamp;pressure;altitude;pressure_sealevel;temperature;humidity
70046;BME280;57385;41.832;23.494;2023-01-19T00:01:24;90334.03;;;8.58;77.17
70046;BME280;57385;41.832;23.494;2023-01-19T00:02:46;90330.94;;;8.56;77.71
70046;BME280;57385;41.832;23.494;2023-01-19T00:04:08;90340.06;;;8.52;77.98
70046;BME280;57385;41.832;23.494;2023-01-19T00:05:31;90329.28;;;8.50;77.45
70046;BME280;57385;41.832;23.494;2023-01-19T00:06:54;90332.03;;;8.48;78.00
70046;BME280;57385;41.832;23.494;2023-01-19T00:08:17;90334.84;;;8.47;77.88
70046;BME280;57385;41.832;23.494;2023-01-19T00:09:39;90321.50;;;8.45;78.07
70046;BME280;57385;41.832;23.494;2023-01-19T00:11:02;90330.97;;;8.44;77.61
70046;BME280;57385;41.832;23.494;2023-01-19T00:12:25;90324.28;;;8.43;77.49
70046;BME280;57385;41.832;23.494;2023-01-19T00:13:47;90334.28;;;8.45;77.56
70046;BME280;57385;41.832;23.494;2023-01-19T00:15:14;90335.28;;;8.44;77.20
70046;BME280;57385;41.832;23.494;2023-01-19T00:16:36;90325.06;;;8.44;77.05
70046;BME280;57385;41.832;23.494;2023-01-19T00:18:00;90322.75;;;8.42;77.99
70046;BME280;57385;41.832;23.494;2023-01-19T00:19:22;90321.88;;;8.37;77.78
70046;BME280;57385;41.832;23.494;2023-01-19T00:20:47;90323.88;;;8.35;78.05
70046;BME280;57385;41.832;23.494;2023-01-19T00:22:11;90320.53;;;8.34;77.37
70046;BME280;57385;41.832;23.494;2023-01-19T00:23:35;90312.06;;;8.33;77.55
70046;BME280;57385;41.832;23.494;2023-01-19T00:25:00;90323.28;;;8.32;77.52
70046;BME280;57385;41.832;23.494;2023-01-19T00:26:23;90324.66;;;8.35;76.11
70046;BME280;57385;41.832;23.494;2023-01-19T00:27:48;90323.88;;;8.35;76.29
70046;BME280;57385;41.832;23.494;2023-01-19T00:29:11;90322.50;;;8.32;77.13
70046;BME280;57385;41.832;23.494;2023-01-19T00:30:34;90316.63;;;8.31;76.73
70046;BME280;57385;41.832;23.494;2023-01-19T00:32:07;90316.09;;;8.29;76.25
70046;BME280;57385;41.832;23.494;2023-01-19T00:33:32;90318.63;;;8.29;76.54
70046;BME280;57385;41.832;23.494;2023-01-19T00:34:57;90322.97;;;8.29;76.37
70046;BME280;57385;41.832;23.494;2023-01-19T00:36:19;90332.41;;;8.28;76.38
70046;BME280;57385;41.832;23.494;2023-01-19T00:37:47;90338.06;;;8.30;76.09
70046;BME280;57385;41.832;23.494;2023-01-19T00:39:12;90322.19;;;8.28;76.27
70046;BME280;57385;41.832;23.494;2023-01-19T00:40:35;90317.88;;;8.29;76.37
70046;BME280;57385;41.832;23.494;2023-01-19T00:41:57;90317.31;;;8.27;77.04
70046;BME280;57385;41.832;23.494;2023-01-19T00:43:40;90315.66;;;8.21;77.75
70046;BME280;57385;41.832;23.494;2023-01-19T00:45:10;90323.00;;;8.17;77.35
70046;BME280;57385;41.832;23.494;2023-01-19T00:46:32;90330.66;;;8.17;76.91
70046;BME280;57385;41.832;23.494;2023-01-19T00:47:55;90333.66;;;8.14;76.94
70046;BME280;57385;41.832;23.494;2023-01-19T00:51:43;90321.69;;;8.15;75.81
70046;BME280;57385;41.832;23.494;2023-01-19T00:53:53;90335.31;;;8.20;75.92
70046;BME280;57385;41.832;23.494;2023-01-19T00:55:33;90335.28;;;8.32;75.33
70046;BME280;57385;41.832;23.494;2023-01-19T00:56:57;90328.41;;;8.32;75.53
70046;BME280;57385;41.832;23.494;2023-01-19T00:58:20;90335.75;;;8.41;75.07
70046;BME280;57385;41.832;23.494;2023-01-19T00:59:46;90337.31;;;8.42;75.43
70046;BME280;57385;41.832;23.494;2023-01-19T01:01:10;90339.84;;;8.42;75.77
70046;BME280;57385;41.832;23.494;2023-01-19T01:02:33;90337.75;;;8.39;76.78
70046;BME280;57385;41.832;23.494;2023-01-19T01:03:59;90345.06;;;8.35;76.78
70046;BME280;57385;41.832;23.494;2023-01-19T01:05:22;90350.75;;;8.37;76.85
70046;BME280;57385;41.832;23.494;2023-01-19T01:06:46;90350.00;;;8.37;76.62
70046;BME280;57385;41.832;23.494;2023-01-19T01:08:15;90338.19;;;8.36;76.74
70046;BME280;57385;41.832;23.494;2023-01-19T01:09:40;90341.16;;;8.32;77.46
70046;BME280;57385;41.832;23.494;2023-01-19T01:11:04;90348.06;;;8.32;76.91
70046;BME280;57385;41.832;23.494;2023-01-19T01:12:35;90350.38;;;8.33;77.23
70046;BME280;57385;41.832;23.494;2023-01-19T01:13:59;90350.97;;;8.36;77.66
70046;BME280;57385;41.832;23.494;2023-01-19T01:15:22;90346.84;;;8.35;77.51
70046;BME280;57385;41.832;23.494;2023-01-19T01:16:44;90353.50;;;8.36;77.89
70046;BME280;57385;41.832;23.494;2023-01-19T01:18:07;90348.41;;;8.36;78.04
70046;BME280;57385;41.832;23.494;2023-01-19T01:19:32;90346.09;;;8.34;77.89
70046;BME280;57385;41.832;23.494;2023-01-19T01:21:03;90343.97;;;8.31;78.26
70046;BME280;57385;41.832;23.494;2023-01-19T01:22:33;90340.84;;;8.29;78.27
70046;BME280;57385;41.832;23.494;2023-01-19T01:23:55;90339.06;;;8.29;78.29
70046;BME280;57385;41.832;23.494;2023-01-19T01:25:19;90339.84;;;8.30;78.28
70046;BME280;57385;41.832;23.494;2023-01-19T01:26:43;90346.19;;;8.27;78.65
70046;BME280;57385;41.832;23.494;2023-01-19T01:28:06;90340.31;;;8.27;78.11
70046;BME280;57385;41.832;23.494;2023-01-19T01:29:31;90337.06;;;8.31;77.39
70046;BME280;57385;41.832;23.494;2023-01-19T01:30:58;90329.56;;;8.37;77.36
70046;BME280;57385;41.832;23.494;2023-01-19T01:32:23;90334.09;;;8.35;78.00
70046;BME280;57385;41.832;23.494;2023-01-19T01:33:48;90343.72;;;8.32;77.94
70046;BME280;57385;41.832;23.494;2023-01-19T01:35:11;90345.50;;;8.32;78.37
70046;BME280;57385;41.832;23.494;2023-01-19T01:36:33;90335.28;;;8.32;77.94
70046;BME280;57385;41.832;23.494;2023-01-19T01:37:57;90332.50;;;8.33;78.13
70046;BME280;57385;41.832;23.494;2023-01-19T01:39:21;90337.84;;;8.32;78.04
70046;BME280;57385;41.832;23.494;2023-01-19T01:40:46;90332.19;;;8.30;78.61
70046;BME280;57385;41.832;23.494;2023-01-19T01:42:16;90333.97;;;8.29;78.30
70046;BME280;57385;41.832;23.494;2023-01-19T01:43:49;90313.75;;;8.28;78.54
70046;BME280;57385;41.832;23.494;2023-01-19T01:45:38;90321.66;;;8.26;78.47
70046;BME280;57385;41.832;23.494;2023-01-19T01:47:39;90343.09;;;8.25;78.23
70046;BME280;57385;41.832;23.494;2023-01-19T01:49:12;90320.56;;;8.22;78.27
70046;BME280;57385;41.832;23.494;2023-01-19T01:50:58;90321.75;;;8.31;75.62
70046;BME280;57385;41.832;23.494;2023-01-19T01:53:07;90329.88;;;8.40;75.09
70046;BME280;57385;41.832;23.494;2023-01-19T01:54:34;90310.06;;;8.47;74.86
70046;BME280;57385;41.832;23.494;2023-01-19T01:56:03;90323.38;;;8.49;74.82
70046;BME280;57385;41.832;23.494;2023-01-19T01:57:30;90323.94;;;8.51;75.62
70046;BME280;57385;41.832;23.494;2023-01-19T01:58:55;90308.50;;;8.46;76.02
70046;BME280;57385;41.832;23.494;2023-01-19T02:00:20;90315.09;;;8.42;75.95
70046;BME280;57385;41.832;23.494;2023-01-19T02:01:48;90318.09;;;8.39;76.69
70046;BME280;57385;41.832;23.494;2023-01-19T02:03:29;90322.84;;;8.36;76.81
70046;BME280;57385;41.832;23.494;2023-01-19T02:04:59;90323.88;;;8.35;76.53
70046;BME280;57385;41.832;23.494;2023-01-19T02:06:27;90305.22;;;8.34;77.02
70046;BME280;57385;41.832;23.494;2023-01-19T02:09:57;90327.06;;;8.30;76.77
70046;BME280;57385;41.832;23.494;2023-01-19T02:11:46;90321.66;;;8.26;77.13
70046;BME280;57385;41.832;23.494;2023-01-19T02:13:49;90327.00;;;8.25;77.16
70046;BME280;57385;41.832;23.494;2023-01-19T02:15:17;90326.66;;;8.21;77.95
70046;BME280;57385;41.832;23.494;2023-01-19T02:16:45;90334.22;;;8.16;78.10
70046;BME280;57385;41.832;23.494;2023-01-19T02:18:16;90337.53;;;8.17;78.36
70046;BME280;57385;41.832;23.494;2023-01-19T02:19:41;90332.75;;;8.20;77.95
70046;BME280;57385;41.832;23.494;2023-01-19T02:22:47;90335.97;;;8.27;77.78
70046;BME280;57385;41.832;23.494;2023-01-19T02:24:10;90309.34;;;8.23;78.64
70046;BME280;57385;41.832;23.494;2023-01-19T02:25:32;90308.75;;;8.21;78.62
70046;BME280;57385;41.832;23.494;2023-01-19T02:27:06;90326.66;;;8.21;79.13
70046;BME280;57385;41.832;23.494;2023-01-19T02:28:31;90333.53;;;8.21;79.25
70046;BME280;57385;41.832;23.494;2023-01-19T02:29:53;90331.66;;;8.16;79.03
70046;BME280;57385;41.832;23.494;2023-01-19T02:31:25;90318.56;;;8.13;79.27
70046;BME280;57385;41.832;23.494;2023-01-19T02:32:50;90313.09;;;8.21;79.02
70046;BME280;57385;41.832;23.494;2023-01-19T02:34:18;90314.31;;;8.30;76.30
70046;BME280;57385;41.832;23.494;2023-01-19T02:35:40;90310.06;;;8.47;74.12
70046;BME280;57385;41.832;23.494;2023-01-19T02:37:10;90313.75;;;8.40;76.95
70046;BME280;57385;41.832;23.494;2023-01-19T02:38:36;90315.44;;;8.34;77.27
70046;BME280;57385;41.832;23.494;2023-01-19T02:40:03;90330.63;;;8.41;76.27
70046;BME280;57385;41.832;23.494;2023-01-19T02:41:29;90310.94;;;8.53;76.72
70046;BME280;57385;41.832;23.494;2023-01-19T02:43:17;90321.81;;;8.48;77.84
70046;BME280;57385;41.832;23.494;2023-01-19T02:44:59;90312.84;;;8.46;77.96
70046;BME280;57385;41.832;23.494;2023-01-19T02:48:43;90320.50;;;8.46;77.29
70046;BME280;57385;41.832;23.494;2023-01-19T02:50:48;90319.97;;;8.44;77.58
70046;BME280;57385;41.832;23.494;2023-01-19T02:52:17;90310.66;;;8.38;78.47
70046;BME280;57385;41.832;23.494;2023-01-19T02:55:21;90305.41;;;8.32;78.37
70046;BME280;57385;41.832;23.494;2023-01-19T02:59:30;90317.97;;;8.34;78.67
70046;BME280;57385;41.832;23.494;2023-01-19T03:00:48;90307.19;;;8.32;79.11
70046;BME280;57385;41.832;23.494;2023-01-19T03:02:35;90317.97;;;8.34;78.89
70046;BME280;57385;41.832;23.494;2023-01-19T03:06:04;90308.34;;;8.24;79.06
70046;BME280;57385;41.832;23.494;2023-01-19T03:07:30;90317.19;;;8.22;79.39
70046;BME280;57385;41.832;23.494;2023-01-19T03:09:02;90316.66;;;8.20;79.46
70046;BME280;57385;41.832;23.494;2023-01-19T03:14:03;90317.81;;;8.12;79.89
70046;BME280;57385;41.832;23.494;2023-01-19T03:16:03;90324.13;;;8.10;79.60
70046;BME280;57385;41.832;23.494;2023-01-19T03:17:22;90314.25;;;8.13;79.85
70046;BME280;57385;41.832;23.494;2023-01-19T03:18:50;90302.03;;;8.15;79.64
70046;BME280;57385;41.832;23.494;2023-01-19T03:20:20;90312.91;;;8.22;79.32
70046;BME280;57385;41.832;23.494;2023-01-19T03:21:49;90305.44;;;8.21;79.82
70046;BME280;57385;41.832;23.494;2023-01-19T03:23:15;90310.34;;;8.22;79.58
70046;BME280;57385;41.832;23.494;2023-01-19T03:24:41;90305.78;;;8.24;79.60
70046;BME280;57385;41.832;23.494;2023-01-19T03:26:05;90300.69;;;8.24;79.67
70046;BME280;57385;41.832;23.494;2023-01-19T03:27:32;90305.25;;;8.22;79.64
70046;BME280;57385;41.832;23.494;2023-01-19T03:29:02;90279.13;;;8.20;80.40
70046;BME280;57385;41.832;23.494;2023-01-19T03:30:29;90298.34;;;8.23;79.98
70046;BME280;57385;41.832;23.494;2023-01-19T03:31:58;90307.56;;;8.24;79.77
70046;BME280;57385;41.832;23.494;2023-01-19T03:33:26;90310.34;;;8.22;80.43
70046;BME280;57385;41.832;23.494;2023-01-19T03:34:50;90309.22;;;8.18;80.68
70046;BME280;57385;41.832;23.494;2023-01-19T03:38:29;90304.03;;;8.13;80.75
70046;BME280;57385;41.832;23.494;2023-01-19T03:39:53;90309.59;;;8.10;80.90
70046;BME280;57385;41.832;23.494;2023-01-19T03:41:18;90272.28;;;8.09;80.79
70046;BME280;57385;41.832;23.494;2023-01-19T03:42:41;90279.38;;;8.07;81.11
70046;BME280;57385;41.832;23.494;2023-01-19T03:44:06;90304.13;;;8.07;80.67
70046;BME280;57385;41.832;23.494;2023-01-19T03:45:29;90297.06;;;8.09;80.95
70046;BME280;57385;41.832;23.494;2023-01-19T03:47:18;90301.81;;;8.05;80.75
70046;BME280;57385;41.832;23.494;2023-01-19T03:48:56;90297.72;;;8.04;80.42
70046;BME280;57385;41.832;23.494;2023-01-19T03:50:28;90302.81;;;8.04;80.98
70046;BME280;57385;41.832;23.494;2023-01-19T03:51:53;90316.91;;;8.07;80.29
70046;BME280;57385;41.832;23.494;2023-01-19T03:53:16;90300.78;;;8.18;80.04
70046;BME280;57385;41.832;23.494;2023-01-19T03:54:42;90295.78;;;8.23;79.14
70046;BME280;57385;41.832;23.494;2023-01-19T03:56:06;90293.78;;;8.25;79.11
70046;BME280;57385;41.832;23.494;2023-01-19T03:57:33;90295.34;;;8.26;78.90
70046;BME280;57385;41.832;23.494;2023-01-19T03:58:56;90290.22;;;8.26;78.86
70046;BME280;57385;41.832;23.494;2023-01-19T04:00:18;90297.66;;;8.27;78.11
70046;BME280;57385;41.832;23.494;2023-01-19T04:01:41;90289.78;;;8.29;78.32
70046;BME280;57385;41.832;23.494;2023-01-19T04:03:10;90300.22;;;8.27;79.01
70046;BME280;57385;41.832;23.494;2023-01-19T04:04:34;90301.75;;;8.28;78.34
70046;BME280;57385;41.832;23.494;2023-01-19T04:05:57;90302.84;;;8.32;78.30
70046;BME280;57385;41.832;23.494;2023-01-19T04:07:19;90320.53;;;8.34;78.62
70046;BME280;57385;41.832;23.494;2023-01-19T04:08:41;90320.88;;;8.38;78.22
70046;BME280;57385;41.832;23.494;2023-01-19T04:10:04;90309.97;;;8.42;78.44
70046;BME280;57385;41.832;23.494;2023-01-19T04:11:26;90300.53;;;8.43;78.01
70046;BME280;57385;41.832;23.494;2023-01-19T04:12:50;90291.63;;;8.45;77.49
70046;BME280;57385;41.832;23.494;2023-01-19T04:14:17;90293.31;;;8.40;77.76
70046;BME280;57385;41.832;23.494;2023-01-19T04:15:42;90285.34;;;8.36;78.64
70046;BME280;57385;41.832;23.494;2023-01-19T04:17:04;90299.09;;;8.35;78.84
70046;BME280;57385;41.832;23.494;2023-01-19T04:18:28;90301.31;;;8.31;78.52
70046;BME280;57385;41.832;23.494;2023-01-19T04:19:50;90298.44;;;8.28;78.92
70046;BME280;57385;41.832;23.494;2023-01-19T04:21:12;90291.78;;;8.27;78.87
70046;BME280;57385;41.832;23.494;2023-01-19T04:22:35;90303.00;;;8.26;78.57
70046;BME280;57385;41.832;23.494;2023-01-19T04:23:57;90297.00;;;8.20;79.00
70046;BME280;57385;41.832;23.494;2023-01-19T04:25:19;90296.47;;;8.18;79.27
70046;BME280;57385;41.832;23.494;2023-01-19T04:26:43;90287.69;;;8.14;79.30
70046;BME280;57385;41.832;23.494;2023-01-19T04:28:05;90285.69;;;8.16;79.32
70046;BME280;57385;41.832;23.494;2023-01-19T04:29:27;90302.03;;;8.15;79.26
70046;BME280;57385;41.832;23.494;2023-01-19T04:30:50;90294.91;;;8.17;80.00
70046;BME280;57385;41.832;23.494;2023-01-19T04:32:15;90306.13;;;8.16;79.45
70046;BME280;57385;41.832;23.494;2023-01-19T04:33:39;90304.56;;;8.15;79.61
70046;BME280;57385;41.832;23.494;2023-01-19T04:35:03;90265.59;;;8.08;80.41
70046;BME280;57385;41.832;23.494;2023-01-19T04:36:26;90255.63;;;8.07;80.25
70046;BME280;57385;41.832;23.494;2023-01-19T04:37:51;90278.28;;;8.03;80.42
70046;BME280;57385;41.832;23.494;2023-01-19T04:39:16;90288.28;;;8.05;79.30
70046;BME280;57385;41.832;23.494;2023-01-19T04:40:38;90293.69;;;8.08;80.07
70046;BME280;57385;41.832;23.494;2023-01-19T04:42:01;90297.25;;;8.07;80.15
70046;BME280;57385;41.832;23.494;2023-01-19T04:43:27;90283.94;;;8.05;80.34
70046;BME280;57385;41.832;23.494;2023-01-19T04:44:48;90298.72;;;8.03;80.46
70046;BME280;57385;41.832;23.494;2023-01-19T04:46:11;90300.72;;;8.01;80.09
70046;BME280;57385;41.832;23.494;2023-01-19T04:47:33;90293.69;;;8.08;78.93
70046;BME280;57385;41.832;23.494;2023-01-19T04:48:55;90304.13;;;8.18;78.90
70046;BME280;57385;41.832;23.494;2023-01-19T04:50:18;90306.13;;;8.16;78.55
70046;BME280;57385;41.832;23.494;2023-01-19T04:51:41;90308.13;;;8.14;79.44
70046;BME280;57385;41.832;23.494;2023-01-19T04:53:03;90302.72;;;8.11;79.12
70046;BME280;57385;41.832;23.494;2023-01-19T04:54:25;90310.25;;;8.06;79.52
70046;BME280;57385;41.832;23.494;2023-01-19T04:55:54;90308.94;;;8.03;80.08
70046;BME280;57385;41.832;23.494;2023-01-19T04:57:16;90317.59;;;8.02;80.32
70046;BME280;57385;41.832;23.494;2023-01-19T04:58:38;90307.06;;;7.98;80.11
70046;BME280;57385;41.832;23.494;2023-01-19T05:00:02;90296.28;;;7.96;80.49
70046;BME280;57385;41.832;23.494;2023-01-19T05:01:27;90302.59;;;7.94;80.29
70046;BME280;57385;41.832;23.494;2023-01-19T05:02:51;90304.38;;;7.93;80.47
70046;BME280;57385;41.832;23.494;2023-01-19T05:04:18;90314.59;;;7.93;80.98
70046;BME280;57385;41.832;23.494;2023-01-19T05:05:43;90290.84;;;7.93;81.55
70046;BME280;57385;41.832;23.494;2023-01-19T05:07:07;90297.88;;;7.86;81.81
70046;BME280;57385;41.832;23.494;2023-01-19T05:08:34;90313.94;;;7.86;81.83
70046;BME280;57385;41.832;23.494;2023-01-19T05:10:06;90326.94;;;7.85;81.87
70046;BME280;57385;41.832;23.494;2023-01-19T05:11:28;90336.59;;;7.83;81.92
70046;BME280;57385;41.832;23.494;2023-01-19T05:12:50;90330.38;;;7.79;81.57
70046;BME280;57385;41.832;23.494;2023-01-19T05:14:16;90321.16;;;7.78;81.55
70046;BME280;57385;41.832;23.494;2023-01-19T05:15:38;90328.28;;;7.76;82.07
70046;BME280;57385;41.832;23.494;2023-01-19T05:17:03;90315.50;;;7.76;81.93
70046;BME280;57385;41.832;23.494;2023-01-19T05:18:28;90308.31;;;7.72;82.36
70046;BME280;57385;41.832;23.494;2023-01-19T05:19:56;90296.41;;;7.78;81.66
70046;BME280;57385;41.832;23.494;2023-01-19T05:21:18;90308.19;;;7.79;82.21
70046;BME280;57385;41.832;23.494;2023-01-19T05:22:49;90306.63;;;7.78;82.21
70046;BME280;57385;41.832;23.494;2023-01-19T05:24:12;90309.94;;;7.79;81.76
70046;BME280;57385;41.832;23.494;2023-01-19T05:25:37;90298.19;;;7.78;82.01
70046;BME280;57385;41.832;23.494;2023-01-19T05:26:59;90307.94;;;7.81;81.51
70046;BME280;57385;41.832;23.494;2023-01-19T05:28:21;90309.19;;;7.78;81.41
70046;BME280;57385;41.832;23.494;2023-01-19T05:29:46;90298.19;;;7.78;81.33
70046;BME280;57385;41.832;23.494;2023-01-19T05:31:08;90301.97;;;7.75;80.87
70046;BME280;57385;41.832;23.494;2023-01-19T05:32:31;90288.44;;;7.75;81.70
70046;BME280;57385;41.832;23.494;2023-01-19T05:33:53;90304.97;;;7.72;81.10
70046;BME280;57385;41.832;23.494;2023-01-19T05:35:15;90319.50;;;7.71;81.85
70046;BME280;57385;41.832;23.494;2023-01-19T05:36:43;90326.41;;;7.71;81.79
70046;BME280;57385;41.832;23.494;2023-01-19T05:38:05;90310.63;;;7.74;82.12
70046;BME280;57385;41.832;23.494;2023-01-19T05:39:27;90289.44;;;7.73;81.70
70046;BME280;57385;41.832;23.494;2023-01-19T05:40:56;90304.75;;;7.73;82.00
70046;BME280;57385;41.832;23.494;2023-01-19T05:42:19;90314.19;;;7.73;81.91
70046;BME280;57385;41.832;23.494;2023-01-19T05:43:41;90313.41;;;7.72;81.31
70046;BME280;57385;41.832;23.494;2023-01-19T05:45:05;90311.63;;;7.73;80.99
70046;BME280;57385;41.832;23.494;2023-01-19T05:46:27;90316.50;;;7.75;80.97
70046;BME280;57385;41.832;23.494;2023-01-19T05:47:49;90308.31;;;7.72;80.82
70046;BME280;57385;41.832;23.494;2023-01-19T05:49:13;90299.66;;;7.73;81.42
70046;BME280;57385;41.832;23.494;2023-01-19T05:50:37;90316.06;;;7.78;81.29
70046;BME280;57385;41.832;23.494;2023-01-19T05:51:59;90318.06;;;7.76;81.85
70046;BME280;57385;41.832;23.494;2023-01-19T05:53:21;90322.63;;;7.73;82.11
70046;BME280;57385;41.832;23.494;2023-01-19T05:54:43;90324.63;;;7.71;82.28
70046;BME280;57385;41.832;23.494;2023-01-19T05:56:09;90332.28;;;7.71;81.89
70046;BME280;57385;41.832;23.494;2023-01-19T05:57:31;90338.25;;;7.77;81.33
70046;BME280;57385;41.832;23.494;2023-01-19T05:58:54;90344.91;;;7.78;81.87
70046;BME280;57385;41.832;23.494;2023-01-19T06:00:16;90328.81;;;7.78;81.44
70046;BME280;57385;41.832;23.494;2023-01-19T06:01:39;90318.59;;;7.78;81.95
70046;BME280;57385;41.832;23.494;2023-01-19T06:03:01;90322.47;;;7.92;79.09
70046;BME280;57385;41.832;23.494;2023-01-19T06:04:27;90322.47;;;8.03;74.75
70046;BME280;57385;41.832;23.494;2023-01-19T06:05:49;90335.78;;;8.06;77.20
70046;BME280;57385;41.832;23.494;2023-01-19T06:07:11;90330.13;;;8.03;78.23
70046;BME280;57385;41.832;23.494;2023-01-19T06:08:33;90322.59;;;7.97;78.81
70046;BME280;57385;41.832;23.494;2023-01-19T06:09:57;90328.47;;;7.97;80.26
70046;BME280;57385;41.832;23.494;2023-01-19T06:11:19;90335.38;;;7.97;80.70
70046;BME280;57385;41.832;23.494;2023-01-19T06:12:43;90337.91;;;7.97;80.46
70046;BME280;57385;41.832;23.494;2023-01-19T06:14:08;90352.00;;;7.99;80.70
70046;BME280;57385;41.832;23.494;2023-01-19T06:15:30;90344.13;;;8.01;80.23
70046;BME280;57385;41.832;23.494;2023-01-19T06:16:52;90347.00;;;8.05;80.15
70046;BME280;57385;41.832;23.494;2023-01-19T06:18:17;90343.44;;;8.06;80.19
70046;BME280;57385;41.832;23.494;2023-01-19T06:19:40;90330.34;;;8.02;79.98
70046;BME280;57385;41.832;23.494;2023-01-19T06:21:07;90320.69;;;8.04;79.04
70046;BME280;57385;41.832;23.494;2023-01-19T06:22:29;90339.66;;;8.08;78.25
70046;BME280;57385;41.832;23.494;2023-01-19T06:23:55;90330.34;;;8.14;78.63
70046;BME280;57385;41.832;23.494;2023-01-19T06:25:20;90344.88;;;8.13;78.19
70046;BME280;57385;41.832;23.494;2023-01-19T06:26:48;90334.69;;;8.13;78.10
70046;BME280;57385;41.832;23.494;2023-01-19T06:28:13;90349.53;;;8.16;78.29
70046;BME280;57385;41.832;23.494;2023-01-19T06:29:35;90354.41;;;8.18;77.95
70046;BME280;57385;41.832;23.494;2023-01-19T06:30:57;90342.41;;;8.18;78.11
70046;BME280;57385;41.832;23.494;2023-01-19T06:32:20;90329.09;;;8.16;78.80
70046;BME280;57385;41.832;23.494;2023-01-19T06:33:51;90338.09;;;8.19;78.10
70046;BME280;57385;41.832;23.494;2023-01-19T06:35:23;90350.97;;;8.24;78.58
70046;BME280;57385;41.832;23.494;2023-01-19T06:36:57;90363.06;;;8.28;78.13
70046;BME280;57385;41.832;23.494;2023-01-19T06:38:36;90358.06;;;8.33;77.34
70046;BME280;57385;41.832;23.494;2023-01-19T06:40:01;90347.44;;;8.37;77.34
70046;BME280;57385;41.832;23.494;2023-01-19T06:41:24;90349.75;;;8.38;77.13
70046;BME280;57385;41.832;23.494;2023-01-19T06:42:48;90358.50;;;8.42;77.08
70046;BME280;57385;41.832;23.494;2023-01-19T06:44:11;90351.94;;;8.46;76.65
70046;BME280;57385;41.832;23.494;2023-01-19T06:45:34;90337.94;;;8.49;77.04
70046;BME280;57385;41.832;23.494;2023-01-19T06:47:01;90347.81;;;8.57;75.87
70046;BME280;57385;41.832;23.494;2023-01-19T06:48:36;90369.09;;;8.63;75.96
70046;BME280;57385;41.832;23.494;2023-01-19T06:49:58;90361.44;;;8.63;75.65
70046;BME280;57385;41.832;23.494;2023-01-19T06:51:21;90346.00;;;8.69;75.42
70046;BME280;57385;41.832;23.494;2023-01-19T06:52:43;90353.13;;;8.67;75.29
70046;BME280;57385;41.832;23.494;2023-01-19T06:54:06;90352.88;;;8.69;74.97
70046;BME280;57385;41.832;23.494;2023-01-19T06:55:30;90340.78;;;8.93;74.52
70046;BME280;57385;41.832;23.494;2023-01-19T06:56:55;90349.97;;;9.72;72.11
70046;BME280;57385;41.832;23.494;2023-01-19T06:58:23;90354.78;;;10.85;68.68
70046;BME280;57385;41.832;23.494;2023-01-19T06:59:45;90341.84;;;11.61;66.55
70046;BME280;57385;41.832;23.494;2023-01-19T07:01:10;90335.63;;;12.21;64.74
70046;BME280;57385;41.832;23.494;2023-01-19T07:02:40;90351.28;;;12.82;62.93
70046;BME280;57385;41.832;23.494;2023-01-19T07:04:08;90343.19;;;13.20;59.96
70046;BME280;57385;41.832;23.494;2023-01-19T07:05:37;90356.09;;;13.56;59.74
70046;BME280;57385;41.832;23.494;2023-01-19T07:07:02;90364.13;;;13.90;58.88
70046;BME280;57385;41.832;23.494;2023-01-19T07:08:26;90376.22;;;13.89;58.57
70046;BME280;57385;41.832;23.494;2023-01-19T07:09:53;90339.13;;;13.65;59.17
70046;BME280;57385;41.832;23.494;2023-01-19T07:11:17;90329.34;;;13.72;56.99
70046;BME280;57385;41.832;23.494;2023-01-19T07:12:53;90331.88;;;14.18;56.68
70046;BME280;57385;41.832;23.494;2023-01-19T07:14:17;90348.63;;;14.15;57.47
70046;BME280;57385;41.832;23.494;2023-01-19T07:15:43;90352.63;;;14.77;55.29
70046;BME280;57385;41.832;23.494;2023-01-19T07:17:12;90345.75;;;15.12;54.85
70046;BME280;57385;41.832;23.494;2023-01-19T07:18:35;90339.28;;;15.59;54.11
70046;BME280;57385;41.832;23.494;2023-01-19T07:19:58;90330.78;;;15.53;53.10
70046;BME280;57385;41.832;23.494;2023-01-19T07:21:23;90322.34;;;15.43;53.23
70046;BME280;57385;41.832;23.494;2023-01-19T07:22:45;90326.34;;;15.20;52.27
70046;BME280;57385;41.832;23.494;2023-01-19T07:24:08;90338.41;;;15.79;51.00
70046;BME280;57385;41.832;23.494;2023-01-19T07:25:30;90330.09;;;16.11;51.29
70046;BME280;57385;41.832;23.494;2023-01-19T07:26:52;90337.31;;;16.14;51.64
70046;BME280;57385;41.832;23.494;2023-01-19T07:28:14;90333.53;;;16.30;51.52
70046;BME280;57385;41.832;23.494;2023-01-19T07:29:37;90322.69;;;15.99;50.08
70046;BME280;57385;41.832;23.494;2023-01-19T07:30:59;90326.94;;;16.43;49.70
70046;BME280;57385;41.832;23.494;2023-01-19T07:32:22;90319.53;;;16.07;48.44
70046;BME280;57385;41.832;23.494;2023-01-19T07:33:46;90322.41;;;16.06;50.60
70046;BME280;57385;41.832;23.494;2023-01-19T07:35:10;90318.66;;;15.49;51.60
70046;BME280;57385;41.832;23.494;2023-01-19T07:36:35;90318.09;;;15.96;49.44
70046;BME280;57385;41.832;23.494;2023-01-19T07:37:58;90326.75;;;15.81;48.03
70046;BME280;57385;41.832;23.494;2023-01-19T07:39:20;90307.47;;;15.24;50.68
70046;BME280;57385;41.832;23.494;2023-01-19T07:40:42;90317.06;;;15.63;48.46
70046;BME280;57385;41.832;23.494;2023-01-19T07:42:04;90319.69;;;16.16;47.19
70046;BME280;57385;41.832;23.494;2023-01-19T07:43:27;90304.50;;;16.38;48.36
70046;BME280;57385;41.832;23.494;2023-01-19T07:44:49;90314.59;;;16.87;47.42
70046;BME280;57385;41.832;23.494;2023-01-19T07:46:12;90319.53;;;16.36;44.32
70046;BME280;57385;41.832;23.494;2023-01-19T07:47:34;90308.50;;;16.49;45.72
70046;BME280;57385;41.832;23.494;2023-01-19T07:48:56;90311.91;;;15.63;44.69
70046;BME280;57385;41.832;23.494;2023-01-19T07:50:18;90308.41;;;15.78;47.42
70046;BME280;57385;41.832;23.494;2023-01-19T07:51:44;90300.19;;;15.70;47.33
70046;BME280;57385;41.832;23.494;2023-01-19T07:53:07;90315.50;;;16.25;42.91
70046;BME280;57385;41.832;23.494;2023-01-19T07:54:38;90299.91;;;16.01;42.97
70046;BME280;57385;41.832;23.494;2023-01-19T07:56:00;90300.34;;;15.84;42.13
70046;BME280;57385;41.832;23.494;2023-01-19T07:57:22;90301.41;;;16.36;44.21